createdAt,value
2019-05-18T00:00:46.782Z,14.70
2019-05-18T00:03:15.948Z,14.70
2019-05-18T00:05:45.104Z,14.70
2019-05-18T00:08:14.253Z,14.60
2019-05-18T00:10:43.399Z,14.60
2019-05-18T00:13:12.433Z,14.60
2019-05-18T00:15:41.478Z,14.60
2019-05-18T00:18:10.659Z,14.60
2019-05-18T00:20:39.739Z,14.60
2019-05-18T00:23:08.833Z,14.50
2019-05-18T00:25:37.902Z,14.50
2019-05-18T00:28:07.086Z,14.50
2019-05-18T00:30:36.179Z,14.50
2019-05-18T00:33:05.230Z,14.50
2019-05-18T00:35:34.316Z,14.50
2019-05-18T00:38:03.342Z,14.40
2019-05-18T00:40:32.348Z,14.40
2019-05-18T00:43:01.418Z,14.40
2019-05-18T00:45:30.436Z,14.40
2019-05-18T00:47:59.499Z,14.40
2019-05-18T00:50:28.554Z,14.30
2019-05-18T00:52:57.632Z,14.30
2019-05-18T00:55:26.669Z,14.30
2019-05-18T00:57:55.762Z,14.30
2019-05-18T01:00:24.795Z,14.30
2019-05-18T01:02:53.866Z,14.30
2019-05-18T01:05:22.904Z,14.30
2019-05-18T01:07:51.942Z,14.20
2019-05-18T01:10:21.030Z,14.20
2019-05-18T01:12:50.094Z,14.20
2019-05-18T01:15:19.191Z,14.20
2019-05-18T01:17:56.826Z,14.20
2019-05-18T01:20:18.965Z,14.20
2019-05-18T01:22:48.058Z,14.20
2019-05-18T01:25:17.105Z,14.20
2019-05-18T01:27:46.174Z,14.10
2019-05-18T01:30:15.231Z,14.10
2019-05-18T01:32:44.402Z,14.10
2019-05-18T01:35:13.488Z,14.10
2019-05-18T01:37:42.591Z,14.10
2019-05-18T01:40:11.618Z,14.10
2019-05-18T01:42:40.619Z,14.10
2019-05-18T01:45:28.907Z,14.10
2019-05-18T01:48:12.683Z,14.10
2019-05-18T01:50:28.665Z,14.00
2019-05-18T01:52:57.831Z,14.00
2019-05-18T01:55:26.905Z,14.00
2019-05-18T01:57:56.036Z,14.00
2019-05-18T02:00:25.139Z,14.00
2019-05-18T02:02:54.285Z,14.00
2019-05-18T02:05:23.368Z,14.00
2019-05-18T02:07:52.433Z,14.00
2019-05-18T02:10:21.494Z,14.00
2019-05-18T02:12:50.486Z,13.90
2019-05-18T02:15:19.484Z,13.90
2019-05-18T02:17:48.530Z,13.90
2019-05-18T02:20:17.569Z,13.90
2019-05-18T02:22:46.598Z,13.90
2019-05-18T02:25:15.654Z,13.80
2019-05-18T02:27:44.816Z,13.80
2019-05-18T02:30:17.363Z,13.80
2019-05-18T02:32:44.601Z,13.80
2019-05-18T02:35:13.606Z,13.80
2019-05-18T02:37:42.663Z,13.80
2019-05-18T02:40:11.703Z,13.70
2019-05-18T02:42:40.716Z,13.70
2019-05-18T02:45:09.761Z,13.70
2019-05-18T02:47:38.847Z,13.70
2019-05-18T02:50:11.054Z,13.70
2019-05-18T02:52:40.064Z,13.70
2019-05-18T02:55:09.062Z,13.70
2019-05-18T02:57:38.085Z,13.70
2019-05-18T03:00:08.122Z,13.60
2019-05-18T03:02:37.215Z,13.60
2019-05-18T03:05:06.309Z,13.60
2019-05-18T03:07:35.443Z,13.60
2019-05-18T03:10:04.654Z,13.60
2019-05-18T03:12:33.730Z,13.60
2019-05-18T03:15:02.741Z,13.60
2019-05-18T03:17:31.786Z,13.60
2019-05-18T03:20:00.943Z,13.60
2019-05-18T03:22:29.984Z,13.60
2019-05-18T03:24:59.080Z,13.60
2019-05-18T03:27:28.152Z,13.60
2019-05-18T03:29:57.207Z,13.60
2019-05-18T03:32:26.206Z,13.60
2019-05-18T03:34:55.236Z,13.60
2019-05-18T03:37:24.393Z,13.50
2019-05-18T03:39:53.406Z,13.60
2019-05-18T03:42:22.499Z,13.50
2019-05-18T03:44:51.627Z,13.50
2019-05-18T03:47:20.651Z,13.50
2019-05-18T03:49:49.802Z,13.50
2019-05-18T03:52:18.884Z,13.50
2019-05-18T03:55:08.104Z,13.50
2019-05-18T03:57:37.264Z,13.40
2019-05-18T04:00:06.683Z,13.40
2019-05-18T04:02:35.719Z,13.50
2019-05-18T04:05:06.250Z,13.40
2019-05-18T04:07:35.277Z,13.40
2019-05-18T04:10:04.465Z,13.40
2019-05-18T04:12:33.509Z,13.40
2019-05-18T04:15:02.604Z,13.40
2019-05-18T04:17:31.670Z,13.40
2019-05-18T04:20:00.728Z,13.40
2019-05-18T04:22:29.770Z,13.40
2019-05-18T04:24:58.815Z,13.40
2019-05-18T04:27:27.848Z,13.40
2019-05-18T04:29:56.889Z,13.40
2019-05-18T04:32:26.070Z,13.40
2019-05-18T04:34:55.052Z,13.40
2019-05-18T04:37:24.211Z,13.40
2019-05-18T04:39:53.275Z,13.40
2019-05-18T04:42:22.275Z,13.40
2019-05-18T04:44:51.318Z,13.40
2019-05-18T04:47:20.355Z,13.40
2019-05-18T04:50:04.676Z,13.40
2019-05-18T04:52:20.110Z,13.40
2019-05-18T04:54:49.143Z,13.40
2019-05-18T04:57:18.081Z,13.40
2019-05-18T04:59:47.136Z,13.50
2019-05-18T05:02:16.201Z,13.50
2019-05-18T05:04:45.279Z,13.50
2019-05-18T05:07:14.339Z,13.50
2019-05-18T05:09:43.403Z,13.50
2019-05-18T05:12:12.479Z,13.50
2019-05-18T05:15:00.686Z,13.60
2019-05-18T05:17:29.792Z,13.60
2019-05-18T05:19:58.877Z,13.60
2019-05-18T05:22:27.934Z,13.60
2019-05-18T05:24:58.452Z,13.60
2019-05-18T05:27:27.486Z,13.60
2019-05-18T05:29:56.535Z,13.60
2019-05-18T05:32:25.590Z,13.70
2019-05-18T05:34:54.664Z,13.70
2019-05-18T05:37:23.680Z,13.70
2019-05-18T05:39:52.718Z,13.70
2019-05-18T05:42:21.802Z,13.70
2019-05-18T05:44:55.425Z,13.70
2019-05-18T05:47:24.473Z,13.70
2019-05-18T05:49:53.470Z,13.80
2019-05-18T05:52:22.461Z,13.80
2019-05-18T05:54:52.119Z,13.80
2019-05-18T05:57:21.198Z,13.80
2019-05-18T05:59:50.263Z,13.80
2019-05-18T06:02:19.422Z,13.90
2019-05-18T06:04:48.459Z,13.90
2019-05-18T06:07:17.559Z,13.90
2019-05-18T06:09:46.631Z,14.00
2019-05-18T06:12:15.660Z,14.00
2019-05-18T06:14:44.702Z,14.00
2019-05-18T06:17:13.760Z,14.00
2019-05-18T06:19:42.830Z,14.10
2019-05-18T06:22:11.906Z,14.10
2019-05-18T06:24:41.006Z,14.10
2019-05-18T06:27:10.100Z,14.20
2019-05-18T06:29:39.129Z,14.20
2019-05-18T06:32:08.203Z,14.30
2019-05-18T06:34:37.243Z,14.30
2019-05-18T06:37:06.341Z,14.40
2019-05-18T06:39:35.357Z,14.40
2019-05-18T06:42:04.348Z,14.50
2019-05-18T06:44:33.370Z,14.50
2019-05-18T06:47:02.464Z,14.60
2019-05-18T06:49:31.512Z,14.70
2019-05-18T06:52:00.539Z,14.80
2019-05-18T06:54:29.636Z,14.80
2019-05-18T06:56:58.653Z,14.90
2019-05-18T06:59:27.689Z,15.00
2019-05-18T07:01:56.711Z,15.20
2019-05-18T07:04:25.783Z,15.30
2019-05-18T07:06:54.835Z,15.40
2019-05-18T07:09:23.805Z,15.50
2019-05-18T07:11:56.027Z,15.60
2019-05-18T07:14:25.833Z,15.80
2019-05-18T07:16:54.238Z,15.90
2019-05-18T07:19:23.314Z,16.00
2019-05-18T07:21:52.563Z,16.20
2019-05-18T07:24:21.714Z,16.30
2019-05-18T07:26:50.766Z,16.50
2019-05-18T07:29:19.798Z,16.60
2019-05-18T07:31:48.850Z,16.80
2019-05-18T07:34:17.884Z,16.90
2019-05-18T07:36:46.954Z,17.00
2019-05-18T07:39:15.998Z,17.20
2019-05-18T07:41:47.134Z,17.40
2019-05-18T07:44:15.718Z,17.60
2019-05-18T07:46:44.729Z,17.80
2019-05-18T07:49:13.789Z,18.10
2019-05-18T07:51:42.834Z,18.30
2019-05-18T07:54:11.842Z,18.60
2019-05-18T07:56:40.844Z,18.70
2019-05-18T07:59:09.875Z,19.00
2019-05-18T08:01:39.045Z,19.20
2019-05-18T08:04:08.136Z,19.60
2019-05-18T08:06:37.194Z,20.00
2019-05-18T08:09:07.479Z,20.60
2019-05-18T08:11:36.511Z,21.40
2019-05-18T08:14:05.634Z,22.20
2019-05-18T08:16:34.685Z,23.00
2019-05-18T08:19:03.747Z,23.80
2019-05-18T08:21:32.824Z,24.70
2019-05-18T08:24:01.943Z,25.40
2019-05-18T08:26:30.982Z,26.30
2019-05-18T08:29:00.039Z,27.00
2019-05-18T08:31:29.113Z,27.70
2019-05-18T08:33:58.288Z,28.40
2019-05-18T08:36:27.457Z,28.90
2019-05-18T08:38:56.639Z,29.40
2019-05-18T08:41:25.766Z,29.80
2019-05-18T08:43:54.862Z,29.70
2019-05-18T08:46:23.935Z,29.10
2019-05-18T08:48:53.115Z,28.70
2019-05-18T08:51:22.197Z,28.70
2019-05-18T08:53:51.429Z,28.40
2019-05-18T08:56:20.559Z,28.00
2019-05-18T08:58:49.596Z,28.20
2019-05-18T09:01:18.718Z,27.90
2019-05-18T09:03:47.938Z,27.90
2019-05-18T09:06:17.020Z,28.50
2019-05-18T09:08:46.136Z,28.40
2019-05-18T09:11:15.190Z,28.40
2019-05-18T09:13:44.293Z,29.00
2019-05-18T09:16:13.383Z,29.50
2019-05-18T09:18:42.502Z,29.70
2019-05-18T09:21:11.638Z,30.00
2019-05-18T09:23:40.789Z,30.20
2019-05-18T09:26:09.855Z,30.40
2019-05-18T09:28:39.006Z,30.50
2019-05-18T09:31:08.179Z,30.50
2019-05-18T09:33:37.329Z,30.50
2019-05-18T09:36:06.430Z,30.50
2019-05-18T09:38:35.586Z,30.60
2019-05-18T09:41:04.664Z,30.60
2019-05-18T09:43:33.739Z,30.60
2019-05-18T09:46:02.744Z,30.50
2019-05-18T09:48:31.886Z,30.40
2019-05-18T09:51:01.016Z,30.30
2019-05-18T09:53:30.258Z,30.20
2019-05-18T09:55:59.433Z,30.20
2019-05-18T09:58:28.522Z,30.20
2019-05-18T10:00:57.646Z,30.10
2019-05-18T10:03:26.732Z,30.10
2019-05-18T10:05:55.798Z,30.10
2019-05-18T10:08:24.907Z,30.10
2019-05-18T10:10:54.016Z,30.10
2019-05-18T10:13:23.116Z,30.20
2019-05-18T10:15:52.272Z,30.30
2019-05-18T10:18:21.901Z,30.30
2019-05-18T10:20:51.036Z,30.40
2019-05-18T10:23:20.149Z,30.40
2019-05-18T10:25:49.226Z,30.40
2019-05-18T10:28:19.663Z,30.40
2019-05-18T10:30:48.861Z,30.40
2019-05-18T10:33:17.958Z,30.40
2019-05-18T10:35:47.102Z,30.50
2019-05-18T10:38:16.207Z,30.60
2019-05-18T10:40:45.342Z,30.60
2019-05-18T10:43:14.401Z,30.70
2019-05-18T10:45:45.040Z,30.80
2019-05-18T10:48:14.512Z,30.90
2019-05-18T10:50:44.455Z,31.10
2019-05-18T10:53:27.845Z,31.20
2019-05-18T10:55:44.466Z,31.30
2019-05-18T10:58:13.534Z,31.40
2019-05-18T11:00:42.625Z,31.40
2019-05-18T11:03:11.753Z,31.50
2019-05-18T11:05:40.919Z,31.60
2019-05-18T11:08:10.117Z,31.70
2019-05-18T11:10:39.184Z,31.80
2019-05-18T11:13:08.242Z,31.80
2019-05-18T11:15:37.377Z,31.90
2019-05-18T11:18:06.503Z,32.00
2019-05-18T11:20:35.583Z,32.10
2019-05-18T11:23:04.678Z,32.10
2019-05-18T11:25:33.759Z,32.10
2019-05-18T11:28:02.770Z,32.20
2019-05-18T11:30:31.805Z,32.30
2019-05-18T11:33:00.870Z,32.40
2019-05-18T11:35:30.016Z,32.50
2019-05-18T11:37:59.134Z,32.50
2019-05-18T11:40:28.198Z,32.50
2019-05-18T11:42:57.195Z,32.50
2019-05-18T11:45:26.261Z,32.60
2019-05-18T11:47:55.358Z,32.60
2019-05-18T11:50:24.416Z,32.60
2019-05-18T11:52:53.563Z,32.70
2019-05-18T11:55:24.198Z,32.80
2019-05-18T11:57:53.352Z,32.90
2019-05-18T12:00:22.580Z,33.10
2019-05-18T12:02:51.652Z,33.10
2019-05-18T12:05:20.839Z,33.20
2019-05-18T12:07:50.038Z,33.20
2019-05-18T12:10:19.369Z,33.30
2019-05-18T12:12:48.588Z,33.20
2019-05-18T12:15:17.635Z,33.30
2019-05-18T12:17:46.779Z,33.30
2019-05-18T12:20:15.867Z,33.40
2019-05-18T12:22:45.050Z,33.50
2019-05-18T12:25:14.565Z,33.60
2019-05-18T12:27:43.645Z,33.60
2019-05-18T12:30:12.745Z,33.70
2019-05-18T12:32:41.910Z,33.80
2019-05-18T12:35:11.006Z,33.90
2019-05-18T12:37:40.057Z,34.00
2019-05-18T12:40:13.773Z,34.10
2019-05-18T12:42:42.826Z,34.30
2019-05-18T12:45:11.939Z,34.30
2019-05-18T12:47:42.487Z,34.30
2019-05-18T12:50:11.686Z,34.30
2019-05-18T12:52:40.804Z,34.50
2019-05-18T12:55:12.938Z,34.60
2019-05-18T12:57:43.148Z,34.70
2019-05-18T13:00:12.362Z,34.80
2019-05-18T13:02:41.522Z,34.90
2019-05-18T13:05:10.616Z,34.90
2019-05-18T13:07:39.791Z,34.80
2019-05-18T13:10:10.381Z,34.70
2019-05-18T13:12:39.441Z,34.60
2019-05-18T13:15:10.692Z,34.50
2019-05-18T13:17:39.834Z,34.50
2019-05-18T13:20:09.906Z,34.50
2019-05-18T13:22:38.979Z,34.50
2019-05-18T13:25:08.207Z,34.50
2019-05-18T13:27:39.803Z,34.50
2019-05-18T13:30:08.580Z,34.60
2019-05-18T13:32:37.679Z,34.80
2019-05-18T13:35:06.855Z,34.90
2019-05-18T13:37:35.967Z,35.00
2019-05-18T13:40:05.351Z,35.10
2019-05-18T13:42:34.519Z,35.20
2019-05-18T13:45:03.712Z,35.30
2019-05-18T13:47:32.835Z,35.40
2019-05-18T13:50:02.042Z,35.40
2019-05-18T13:52:31.123Z,35.40
2019-05-18T13:55:04.614Z,35.50
2019-05-18T13:57:31.095Z,35.60
2019-05-18T14:00:00.199Z,35.50
2019-05-18T14:02:29.275Z,35.40
2019-05-18T14:04:58.379Z,35.30
2019-05-18T14:07:27.481Z,35.20
2019-05-18T14:09:56.679Z,35.20
2019-05-18T14:12:25.731Z,35.20
2019-05-18T14:14:54.827Z,35.20
2019-05-18T14:17:24.031Z,35.10
2019-05-18T14:19:53.150Z,34.90
2019-05-18T14:22:22.248Z,34.90
2019-05-18T14:24:51.291Z,34.80
2019-05-18T14:27:20.430Z,34.80
2019-05-18T14:29:49.515Z,34.80
2019-05-18T14:32:18.631Z,34.90
2019-05-18T14:34:47.894Z,35.00
2019-05-18T14:37:17.059Z,35.10
2019-05-18T14:39:46.278Z,35.10
2019-05-18T14:42:15.422Z,35.10
2019-05-18T14:44:44.508Z,35.20
2019-05-18T14:47:13.638Z,35.10
2019-05-18T14:49:42.818Z,35.10
2019-05-18T14:52:12.398Z,35.10
2019-05-18T14:54:41.622Z,35.10
2019-05-18T14:57:10.967Z,35.10
2019-05-18T14:59:40.034Z,35.00
2019-05-18T15:02:09.115Z,35.00
2019-05-18T15:04:38.223Z,35.00
2019-05-18T15:07:09.405Z,34.90
2019-05-18T15:09:38.304Z,34.80
2019-05-18T15:12:07.411Z,34.90
2019-05-18T15:14:36.511Z,34.80
2019-05-18T15:17:05.598Z,34.70
2019-05-18T15:19:34.718Z,34.70
2019-05-18T15:22:04.007Z,34.60
2019-05-18T15:24:33.110Z,34.60
2019-05-18T15:27:02.230Z,34.60
2019-05-18T15:29:31.290Z,34.50
2019-05-18T15:32:00.558Z,34.40
2019-05-18T15:34:29.625Z,34.40
2019-05-18T15:36:59.641Z,34.20
2019-05-18T15:39:28.762Z,34.10
2019-05-18T15:41:57.917Z,34.00
2019-05-18T15:44:26.993Z,34.00
2019-05-18T15:46:58.820Z,34.00
2019-05-18T15:49:27.982Z,33.90
2019-05-18T15:51:57.078Z,33.80
2019-05-18T15:54:26.159Z,33.80
2019-05-18T15:56:55.254Z,33.80
2019-05-18T15:59:24.353Z,33.80
2019-05-18T16:01:53.538Z,33.80
2019-05-18T16:04:22.677Z,33.70
2019-05-18T16:06:51.838Z,33.60
2019-05-18T16:09:20.927Z,33.60
2019-05-18T16:11:50.075Z,33.60
2019-05-18T16:14:19.302Z,33.60
2019-05-18T16:16:48.620Z,33.60
2019-05-18T16:19:17.774Z,33.60
2019-05-18T16:21:46.895Z,33.70
2019-05-18T16:24:16.007Z,33.60
2019-05-18T16:26:45.056Z,33.50
2019-05-18T16:29:14.147Z,33.40
2019-05-18T16:31:43.333Z,33.10
2019-05-18T16:34:12.505Z,33.00
2019-05-18T16:36:41.611Z,32.80
2019-05-18T16:39:13.687Z,32.70
2019-05-18T16:41:42.846Z,32.50
2019-05-18T16:44:12.065Z,32.40
2019-05-18T16:46:41.177Z,32.40
2019-05-18T16:49:12.306Z,32.30
2019-05-18T16:51:41.470Z,32.20
2019-05-18T16:54:10.654Z,32.10
2019-05-18T16:56:39.708Z,31.90
2019-05-18T16:59:08.979Z,31.80
2019-05-18T17:01:38.084Z,31.70
2019-05-18T17:04:09.279Z,31.50
2019-05-18T17:06:38.059Z,31.40
2019-05-18T17:09:07.235Z,31.20
2019-05-18T17:11:36.347Z,31.10
2019-05-18T17:14:05.428Z,30.90
2019-05-18T17:16:34.574Z,30.70
2019-05-18T17:19:03.728Z,30.60
2019-05-18T17:21:32.980Z,30.50
2019-05-18T17:24:02.097Z,30.20
2019-05-18T17:26:31.348Z,30.10
2019-05-18T17:29:00.418Z,30.00
2019-05-18T17:31:29.596Z,29.80
2019-05-18T17:33:58.739Z,29.70
2019-05-18T17:36:27.947Z,29.60
2019-05-18T17:38:57.056Z,29.50
2019-05-18T17:41:26.209Z,29.30
2019-05-18T17:43:57.597Z,29.10
2019-05-18T17:46:26.403Z,29.00
2019-05-18T17:48:55.708Z,28.90
2019-05-18T17:51:24.919Z,28.80
2019-05-18T17:53:54.119Z,28.60
2019-05-18T17:56:23.231Z,28.50
2019-05-18T17:58:52.307Z,28.40
2019-05-18T18:01:21.422Z,28.30
2019-05-18T18:03:50.491Z,28.10
2019-05-18T18:06:19.624Z,28.00
2019-05-18T18:08:48.790Z,27.80
2019-05-18T18:11:17.830Z,27.70
2019-05-18T18:13:46.995Z,27.50
2019-05-18T18:16:16.123Z,27.30
2019-05-18T18:18:45.261Z,27.20
2019-05-18T18:21:14.300Z,27.10
2019-05-18T18:23:43.395Z,27.00
2019-05-18T18:26:12.491Z,26.80
2019-05-18T18:28:41.575Z,26.70
2019-05-18T18:31:10.685Z,26.60
2019-05-18T18:33:39.840Z,26.50
2019-05-18T18:36:09.019Z,26.40
2019-05-18T18:38:38.152Z,26.20
2019-05-18T18:41:07.338Z,26.10
2019-05-18T18:43:36.420Z,26.00
2019-05-18T18:46:05.478Z,25.80
2019-05-18T18:48:34.530Z,25.70
2019-05-18T18:51:03.562Z,25.60
2019-05-18T18:53:32.608Z,25.50
2019-05-18T18:56:01.714Z,25.40
2019-05-18T18:58:30.767Z,25.30
2019-05-18T19:00:59.799Z,25.20
2019-05-18T19:03:28.904Z,25.10
2019-05-18T19:05:58.023Z,24.90
2019-05-18T19:08:27.034Z,24.80
2019-05-18T19:10:56.036Z,24.70
2019-05-18T19:13:25.187Z,24.60
2019-05-18T19:15:54.262Z,24.40
2019-05-18T19:18:23.342Z,24.30
2019-05-18T19:20:52.385Z,24.20
2019-05-18T19:23:21.392Z,24.10
2019-05-18T19:25:50.448Z,24.00
2019-05-18T19:28:19.511Z,23.90
2019-05-18T19:30:48.647Z,23.80
2019-05-18T19:33:17.640Z,23.70
2019-05-18T19:35:46.734Z,23.60
2019-05-18T19:38:15.832Z,23.60
2019-05-18T19:40:45.362Z,23.50
2019-05-18T19:43:14.399Z,23.40
2019-05-18T19:45:43.482Z,23.40
2019-05-18T19:48:12.509Z,23.30
2019-05-18T19:50:41.674Z,23.20
2019-05-18T19:53:10.705Z,23.20
2019-05-18T19:55:39.723Z,23.10
2019-05-18T19:58:09.495Z,23.00
2019-05-18T20:00:38.564Z,23.00
2019-05-18T20:03:07.640Z,22.90
2019-05-18T20:05:36.706Z,22.80
2019-05-18T20:08:05.777Z,22.70
2019-05-18T20:10:34.817Z,22.70
2019-05-18T20:13:03.943Z,22.60
2019-05-18T20:15:33.035Z,22.60
2019-05-18T20:18:02.091Z,22.50
2019-05-18T20:20:31.148Z,22.40
2019-05-18T20:23:00.224Z,22.40
2019-05-18T20:25:29.308Z,22.30
2019-05-18T20:27:58.334Z,22.20
2019-05-18T20:30:27.495Z,22.10
2019-05-18T20:32:56.602Z,22.10
2019-05-18T20:35:25.990Z,22.00
2019-05-18T20:37:55.253Z,22.00
2019-05-18T20:40:24.439Z,21.90
2019-05-18T20:42:53.499Z,21.80
2019-05-18T20:45:22.624Z,21.70
2019-05-18T20:47:51.660Z,21.70
2019-05-18T20:50:20.798Z,21.60
2019-05-18T20:52:49.878Z,21.50
2019-05-18T20:55:18.900Z,21.50
2019-05-18T20:57:47.952Z,21.40
2019-05-18T21:00:17.097Z,21.40
2019-05-18T21:02:46.237Z,21.30
2019-05-18T21:05:15.658Z,21.30
2019-05-18T21:07:44.756Z,21.20
2019-05-18T21:10:13.856Z,21.20
2019-05-18T21:12:42.857Z,21.10
2019-05-18T21:15:11.869Z,21.10
2019-05-18T21:17:40.871Z,21.00
2019-05-18T21:20:09.964Z,20.90
2019-05-18T21:22:39.034Z,20.90
2019-05-18T21:25:08.188Z,20.80
2019-05-18T21:27:37.255Z,20.80
2019-05-18T21:30:06.451Z,20.70
2019-05-18T21:32:35.574Z,20.60
2019-05-18T21:35:04.821Z,20.60
2019-05-18T21:37:34.670Z,20.60
2019-05-18T21:40:05.390Z,20.50
2019-05-18T21:42:34.411Z,20.50
2019-05-18T21:45:03.433Z,20.40
2019-05-18T21:47:32.437Z,20.40
2019-05-18T21:50:01.633Z,20.30
2019-05-18T21:52:30.842Z,20.30
2019-05-18T21:54:59.892Z,20.30
2019-05-18T21:57:28.987Z,20.20
2019-05-18T21:59:58.016Z,20.20
2019-05-18T22:02:27.067Z,20.10
2019-05-18T22:04:56.088Z,20.10
2019-05-18T22:07:25.095Z,20.10
2019-05-18T22:09:54.090Z,20.00
2019-05-18T22:12:23.138Z,20.00
2019-05-18T22:14:52.237Z,20.00
2019-05-18T22:17:21.329Z,19.90
2019-05-18T22:19:50.342Z,19.90
2019-05-18T22:22:19.337Z,19.80
2019-05-18T22:24:48.355Z,19.80
2019-05-18T22:27:17.363Z,19.80
2019-05-18T22:29:46.415Z,19.70
2019-05-18T22:32:15.389Z,19.70
2019-05-18T22:34:44.474Z,19.70
2019-05-18T22:37:13.536Z,19.60
2019-05-18T22:39:42.603Z,19.60
2019-05-18T22:42:11.637Z,19.60
2019-05-18T22:44:40.676Z,19.50
2019-05-18T22:47:09.672Z,19.40
2019-05-18T22:49:38.741Z,19.40
2019-05-18T22:52:07.807Z,19.40
2019-05-18T22:54:36.779Z,19.40
2019-05-18T22:57:05.851Z,19.30
2019-05-18T22:59:35.009Z,19.30
2019-05-18T23:02:04.109Z,19.30
2019-05-18T23:04:33.268Z,19.20
2019-05-18T23:07:02.587Z,19.20
2019-05-18T23:09:31.720Z,19.20
2019-05-18T23:12:00.753Z,19.20
2019-05-18T23:14:29.775Z,19.20
2019-05-18T23:16:58.877Z,19.10
2019-05-18T23:19:27.945Z,19.10
2019-05-18T23:21:57.029Z,19.10
2019-05-18T23:24:26.074Z,19.00
2019-05-18T23:26:55.091Z,19.00
2019-05-18T23:29:24.069Z,19.00
2019-05-18T23:31:53.110Z,19.00
2019-05-18T23:34:22.198Z,18.90
2019-05-18T23:36:51.263Z,18.90
2019-05-18T23:39:20.345Z,18.80
2019-05-18T23:41:49.416Z,18.80
2019-05-18T23:44:18.519Z,18.80
2019-05-18T23:46:50.410Z,18.70
2019-05-18T23:49:19.458Z,18.70
2019-05-18T23:51:51.586Z,18.70
2019-05-18T23:54:20.631Z,18.60
2019-05-18T23:56:49.669Z,18.60
2019-05-18T23:59:18.738Z,18.60
